sensor_id;sensor_type;location;lat;lon;timestamp;P1;durP1;ratioP1;P2;durP2;ratioP2
31770;SDS011;18343;50.152;8.182;2024-03-08T00:01:57;37.65;;;19.75;;
31770;SDS011;18343;50.152;8.182;2024-03-08T00:04:47;40.25;;;20.50;;
31770;SDS011;18343;50.152;8.182;2024-03-08T00:07:34;42.13;;;21.75;;
31770;SDS011;18343;50.152;8.182;2024-03-08T00:10:21;42.42;;;20.67;;
31770;SDS011;18343;50.152;8.182;2024-03-08T00:13:09;40.55;;;20.38;;
31770;SDS011;18343;50.152;8.182;2024-03-08T00:15:57;38.53;;;19.50;;
31770;SDS011;18343;50.152;8.182;2024-03-08T00:18:49;37.47;;;20.70;;
31770;SDS011;18343;50.152;8.182;2024-03-08T00:21:38;36.58;;;19.75;;
31770;SDS011;18343;50.152;8.182;2024-03-08T00:24:23;38.70;;;19.85;;
31770;SDS011;18343;50.152;8.182;2024-03-08T00:27:08;37.25;;;19.27;;
31770;SDS011;18343;50.152;8.182;2024-03-08T00:29:54;38.88;;;20.23;;
31770;SDS011;18343;50.152;8.182;2024-03-08T00:32:38;37.95;;;19.85;;
31770;SDS011;18343;50.152;8.182;2024-03-08T00:35:25;36.20;;;20.20;;
31770;SDS011;18343;50.152;8.182;2024-03-08T00:38:11;38.10;;;20.15;;
31770;SDS011;18343;50.152;8.182;2024-03-08T00:41:00;37.40;;;19.85;;
31770;SDS011;18343;50.152;8.182;2024-03-08T00:43:49;38.78;;;20.45;;
31770;SDS011;18343;50.152;8.182;2024-03-08T00:46:40;38.22;;;20.17;;
31770;SDS011;18343;50.152;8.182;2024-03-08T00:49:27;37.50;;;20.45;;
31770;SDS011;18343;50.152;8.182;2024-03-08T00:55:36;37.92;;;20.30;;
31770;SDS011;18343;50.152;8.182;2024-03-08T00:58:24;39.78;;;21.48;;
31770;SDS011;18343;50.152;8.182;2024-03-08T01:01:13;41.72;;;20.33;;
31770;SDS011;18343;50.152;8.182;2024-03-08T01:04:09;36.97;;;20.13;;
31770;SDS011;18343;50.152;8.182;2024-03-08T01:07:12;37.50;;;21.08;;
31770;SDS011;18343;50.152;8.182;2024-03-08T01:09:59;39.20;;;20.45;;
31770;SDS011;18343;50.152;8.182;2024-03-08T01:12:50;40.80;;;20.35;;
31770;SDS011;18343;50.152;8.182;2024-03-08T01:15:35;40.60;;;21.33;;
31770;SDS011;18343;50.152;8.182;2024-03-08T01:18:20;38.03;;;20.42;;
31770;SDS011;18343;50.152;8.182;2024-03-08T01:21:05;40.42;;;21.60;;
31770;SDS011;18343;50.152;8.182;2024-03-08T01:23:50;37.53;;;20.30;;
31770;SDS011;18343;50.152;8.182;2024-03-08T01:26:37;41.63;;;20.80;;
31770;SDS011;18343;50.152;8.182;2024-03-08T01:29:24;38.67;;;20.52;;
31770;SDS011;18343;50.152;8.182;2024-03-08T01:32:09;35.50;;;20.63;;
31770;SDS011;18343;50.152;8.182;2024-03-08T01:34:54;32.78;;;19.90;;
31770;SDS011;18343;50.152;8.182;2024-03-08T01:37:39;38.80;;;21.25;;
31770;SDS011;18343;50.152;8.182;2024-03-08T01:40:23;45.08;;;20.65;;
31770;SDS011;18343;50.152;8.182;2024-03-08T01:43:25;40.60;;;20.73;;
31770;SDS011;18343;50.152;8.182;2024-03-08T01:46:15;38.13;;;20.42;;
31770;SDS011;18343;50.152;8.182;2024-03-08T01:49:03;40.20;;;21.65;;
31770;SDS011;18343;50.152;8.182;2024-03-08T01:51:51;36.03;;;20.17;;
31770;SDS011;18343;50.152;8.182;2024-03-08T01:54:58;41.85;;;20.83;;
31770;SDS011;18343;50.152;8.182;2024-03-08T01:57:48;42.20;;;20.88;;
31770;SDS011;18343;50.152;8.182;2024-03-08T02:00:36;34.55;;;20.85;;
31770;SDS011;18343;50.152;8.182;2024-03-08T02:03:26;37.50;;;20.60;;
31770;SDS011;18343;50.152;8.182;2024-03-08T02:06:13;38.63;;;20.13;;
31770;SDS011;18343;50.152;8.182;2024-03-08T02:09:02;39.65;;;20.90;;
31770;SDS011;18343;50.152;8.182;2024-03-08T02:11:51;42.63;;;22.25;;
31770;SDS011;18343;50.152;8.182;2024-03-08T02:14:38;41.13;;;20.60;;
31770;SDS011;18343;50.152;8.182;2024-03-08T02:17:23;41.38;;;20.45;;
31770;SDS011;18343;50.152;8.182;2024-03-08T02:20:12;38.90;;;20.20;;
31770;SDS011;18343;50.152;8.182;2024-03-08T02:22:58;40.28;;;21.10;;
31770;SDS011;18343;50.152;8.182;2024-03-08T02:25:47;41.15;;;21.50;;
31770;SDS011;18343;50.152;8.182;2024-03-08T02:28:32;40.33;;;21.80;;
31770;SDS011;18343;50.152;8.182;2024-03-08T02:31:17;40.88;;;20.50;;
31770;SDS011;18343;50.152;8.182;2024-03-08T02:34:07;40.28;;;20.75;;
31770;SDS011;18343;50.152;8.182;2024-03-08T02:36:52;37.33;;;20.77;;
31770;SDS011;18343;50.152;8.182;2024-03-08T02:39:39;37.20;;;20.80;;
31770;SDS011;18343;50.152;8.182;2024-03-08T02:45:15;36.53;;;19.63;;
31770;SDS011;18343;50.152;8.182;2024-03-08T02:48:00;44.78;;;21.02;;
31770;SDS011;18343;50.152;8.182;2024-03-08T02:50:48;41.35;;;20.88;;
31770;SDS011;18343;50.152;8.182;2024-03-08T02:53:33;40.92;;;21.85;;
31770;SDS011;18343;50.152;8.182;2024-03-08T02:56:24;37.33;;;20.20;;
31770;SDS011;18343;50.152;8.182;2024-03-08T02:59:09;40.28;;;19.67;;
31770;SDS011;18343;50.152;8.182;2024-03-08T03:01:55;35.78;;;19.73;;
31770;SDS011;18343;50.152;8.182;2024-03-08T03:04:42;37.47;;;20.02;;
31770;SDS011;18343;50.152;8.182;2024-03-08T03:07:27;38.00;;;20.65;;
31770;SDS011;18343;50.152;8.182;2024-03-08T03:10:34;39.05;;;20.58;;
31770;SDS011;18343;50.152;8.182;2024-03-08T03:13:22;39.42;;;20.15;;
31770;SDS011;18343;50.152;8.182;2024-03-08T03:16:07;40.05;;;20.88;;
31770;SDS011;18343;50.152;8.182;2024-03-08T03:18:53;43.88;;;20.85;;
31770;SDS011;18343;50.152;8.182;2024-03-08T03:21:39;42.63;;;21.38;;
31770;SDS011;18343;50.152;8.182;2024-03-08T03:24:28;38.42;;;20.08;;
31770;SDS011;18343;50.152;8.182;2024-03-08T03:27:13;39.08;;;21.20;;
31770;SDS011;18343;50.152;8.182;2024-03-08T03:30:07;40.78;;;21.15;;
31770;SDS011;18343;50.152;8.182;2024-03-08T03:32:54;42.60;;;21.20;;
31770;SDS011;18343;50.152;8.182;2024-03-08T03:35:42;40.15;;;21.02;;
31770;SDS011;18343;50.152;8.182;2024-03-08T03:38:37;41.58;;;20.88;;
31770;SDS011;18343;50.152;8.182;2024-03-08T03:41:24;44.03;;;21.30;;
31770;SDS011;18343;50.152;8.182;2024-03-08T03:44:10;40.80;;;21.10;;
31770;SDS011;18343;50.152;8.182;2024-03-08T03:46:56;43.85;;;20.65;;
31770;SDS011;18343;50.152;8.182;2024-03-08T03:49:42;41.47;;;22.05;;
31770;SDS011;18343;50.152;8.182;2024-03-08T03:52:28;42.72;;;21.42;;
31770;SDS011;18343;50.152;8.182;2024-03-08T03:55:16;42.67;;;22.48;;
31770;SDS011;18343;50.152;8.182;2024-03-08T03:58:11;40.97;;;21.23;;
31770;SDS011;18343;50.152;8.182;2024-03-08T04:00:55;41.90;;;21.75;;
31770;SDS011;18343;50.152;8.182;2024-03-08T04:03:42;42.63;;;21.50;;
31770;SDS011;18343;50.152;8.182;2024-03-08T04:06:29;43.22;;;22.25;;
31770;SDS011;18343;50.152;8.182;2024-03-08T04:09:24;42.33;;;22.63;;
31770;SDS011;18343;50.152;8.182;2024-03-08T04:12:10;45.72;;;21.88;;
31770;SDS011;18343;50.152;8.182;2024-03-08T04:14:55;41.53;;;22.58;;
31770;SDS011;18343;50.152;8.182;2024-03-08T04:17:41;45.58;;;22.45;;
31770;SDS011;18343;50.152;8.182;2024-03-08T04:20:30;42.17;;;22.90;;
31770;SDS011;18343;50.152;8.182;2024-03-08T04:23:15;47.33;;;23.45;;
31770;SDS011;18343;50.152;8.182;2024-03-08T04:26:04;45.38;;;23.10;;
31770;SDS011;18343;50.152;8.182;2024-03-08T04:28:49;44.08;;;22.38;;
31770;SDS011;18343;50.152;8.182;2024-03-08T04:31:34;45.65;;;22.70;;
31770;SDS011;18343;50.152;8.182;2024-03-08T04:34:25;43.03;;;22.67;;
31770;SDS011;18343;50.152;8.182;2024-03-08T04:37:14;46.63;;;22.95;;
31770;SDS011;18343;50.152;8.182;2024-03-08T04:40:00;44.22;;;23.83;;
31770;SDS011;18343;50.152;8.182;2024-03-08T04:42:48;40.00;;;21.70;;
31770;SDS011;18343;50.152;8.182;2024-03-08T04:45:34;42.25;;;22.80;;
31770;SDS011;18343;50.152;8.182;2024-03-08T04:48:21;49.97;;;24.38;;
31770;SDS011;18343;50.152;8.182;2024-03-08T04:51:06;42.58;;;22.58;;
31770;SDS011;18343;50.152;8.182;2024-03-08T04:53:52;46.85;;;23.60;;
31770;SDS011;18343;50.152;8.182;2024-03-08T04:56:37;45.38;;;23.05;;
31770;SDS011;18343;50.152;8.182;2024-03-08T04:59:23;46.33;;;23.25;;
31770;SDS011;18343;50.152;8.182;2024-03-08T05:02:12;48.08;;;23.80;;
31770;SDS011;18343;50.152;8.182;2024-03-08T05:04:57;49.35;;;25.08;;
31770;SDS011;18343;50.152;8.182;2024-03-08T05:07:42;45.60;;;24.77;;
31770;SDS011;18343;50.152;8.182;2024-03-08T05:10:31;53.03;;;24.65;;
31770;SDS011;18343;50.152;8.182;2024-03-08T05:13:15;48.75;;;24.77;;
31770;SDS011;18343;50.152;8.182;2024-03-08T05:16:02;44.80;;;24.30;;
31770;SDS011;18343;50.152;8.182;2024-03-08T05:18:48;47.13;;;22.85;;
31770;SDS011;18343;50.152;8.182;2024-03-08T05:21:33;49.47;;;24.08;;
31770;SDS011;18343;50.152;8.182;2024-03-08T05:24:23;43.83;;;23.50;;
31770;SDS011;18343;50.152;8.182;2024-03-08T05:27:09;49.20;;;24.95;;
31770;SDS011;18343;50.152;8.182;2024-03-08T05:29:54;40.08;;;21.95;;
31770;SDS011;18343;50.152;8.182;2024-03-08T05:32:39;49.63;;;23.73;;
31770;SDS011;18343;50.152;8.182;2024-03-08T05:35:27;45.85;;;24.38;;
31770;SDS011;18343;50.152;8.182;2024-03-08T05:38:12;47.42;;;24.35;;
31770;SDS011;18343;50.152;8.182;2024-03-08T05:40:57;45.95;;;24.27;;
31770;SDS011;18343;50.152;8.182;2024-03-08T05:43:49;49.65;;;24.42;;
31770;SDS011;18343;50.152;8.182;2024-03-08T05:46:34;47.63;;;23.63;;
31770;SDS011;18343;50.152;8.182;2024-03-08T05:49:26;49.15;;;25.08;;
31770;SDS011;18343;50.152;8.182;2024-03-08T05:52:11;47.70;;;24.30;;
31770;SDS011;18343;50.152;8.182;2024-03-08T05:54:56;41.90;;;20.80;;
31770;SDS011;18343;50.152;8.182;2024-03-08T05:57:41;47.13;;;24.33;;
31770;SDS011;18343;50.152;8.182;2024-03-08T06:00:27;47.80;;;24.80;;
31770;SDS011;18343;50.152;8.182;2024-03-08T06:03:12;47.78;;;24.90;;
31770;SDS011;18343;50.152;8.182;2024-03-08T06:05:57;49.58;;;25.25;;
31770;SDS011;18343;50.152;8.182;2024-03-08T06:08:41;49.47;;;23.83;;
31770;SDS011;18343;50.152;8.182;2024-03-08T06:11:30;46.47;;;24.95;;
31770;SDS011;18343;50.152;8.182;2024-03-08T06:14:15;44.47;;;24.88;;
31770;SDS011;18343;50.152;8.182;2024-03-08T06:17:03;44.20;;;23.98;;
31770;SDS011;18343;50.152;8.182;2024-03-08T06:19:51;47.63;;;24.63;;
31770;SDS011;18343;50.152;8.182;2024-03-08T06:22:36;45.50;;;23.88;;
31770;SDS011;18343;50.152;8.182;2024-03-08T06:25:24;45.60;;;23.98;;
31770;SDS011;18343;50.152;8.182;2024-03-08T06:28:10;46.60;;;23.52;;
31770;SDS011;18343;50.152;8.182;2024-03-08T06:30:59;45.85;;;24.42;;
31770;SDS011;18343;50.152;8.182;2024-03-08T06:33:58;46.50;;;24.15;;
31770;SDS011;18343;50.152;8.182;2024-03-08T06:36:43;47.35;;;24.05;;
31770;SDS011;18343;50.152;8.182;2024-03-08T06:39:28;45.30;;;22.83;;
31770;SDS011;18343;50.152;8.182;2024-03-08T06:42:13;46.08;;;23.45;;
31770;SDS011;18343;50.152;8.182;2024-03-08T06:44:58;42.58;;;21.63;;
31770;SDS011;18343;50.152;8.182;2024-03-08T06:47:47;47.35;;;23.88;;
31770;SDS011;18343;50.152;8.182;2024-03-08T06:50:35;43.60;;;23.35;;
31770;SDS011;18343;50.152;8.182;2024-03-08T06:53:21;45.30;;;22.40;;
31770;SDS011;18343;50.152;8.182;2024-03-08T06:56:07;45.20;;;23.50;;
31770;SDS011;18343;50.152;8.182;2024-03-08T06:58:56;46.03;;;24.65;;
31770;SDS011;18343;50.152;8.182;2024-03-08T07:01:47;44.53;;;23.55;;
31770;SDS011;18343;50.152;8.182;2024-03-08T07:04:35;48.58;;;23.95;;
31770;SDS011;18343;50.152;8.182;2024-03-08T07:07:24;47.50;;;24.40;;
31770;SDS011;18343;50.152;8.182;2024-03-08T07:10:09;46.22;;;22.65;;
31770;SDS011;18343;50.152;8.182;2024-03-08T07:12:55;46.45;;;24.70;;
31770;SDS011;18343;50.152;8.182;2024-03-08T07:15:40;45.75;;;23.98;;
31770;SDS011;18343;50.152;8.182;2024-03-08T07:18:25;52.65;;;24.13;;
31770;SDS011;18343;50.152;8.182;2024-03-08T07:21:12;46.08;;;22.95;;
31770;SDS011;18343;50.152;8.182;2024-03-08T07:23:58;46.10;;;24.45;;
31770;SDS011;18343;50.152;8.182;2024-03-08T07:26:52;47.85;;;22.58;;
31770;SDS011;18343;50.152;8.182;2024-03-08T07:29:38;41.67;;;23.13;;
31770;SDS011;18343;50.152;8.182;2024-03-08T07:32:23;44.40;;;21.35;;
31770;SDS011;18343;50.152;8.182;2024-03-08T07:35:08;52.22;;;24.17;;
31770;SDS011;18343;50.152;8.182;2024-03-08T07:37:53;42.63;;;23.38;;
31770;SDS011;18343;50.152;8.182;2024-03-08T07:40:48;44.97;;;21.98;;
31770;SDS011;18343;50.152;8.182;2024-03-08T07:43:35;45.38;;;23.20;;
31770;SDS011;18343;50.152;8.182;2024-03-08T07:46:28;45.92;;;24.17;;
31770;SDS011;18343;50.152;8.182;2024-03-08T07:49:16;43.92;;;23.20;;
31770;SDS011;18343;50.152;8.182;2024-03-08T07:52:08;44.42;;;23.08;;
31770;SDS011;18343;50.152;8.182;2024-03-08T07:54:55;46.17;;;20.92;;
31770;SDS011;18343;50.152;8.182;2024-03-08T07:57:44;42.22;;;21.30;;
31770;SDS011;18343;50.152;8.182;2024-03-08T08:00:29;45.08;;;22.60;;
31770;SDS011;18343;50.152;8.182;2024-03-08T08:03:15;44.55;;;23.08;;
31770;SDS011;18343;50.152;8.182;2024-03-08T08:06:06;42.50;;;21.52;;
31770;SDS011;18343;50.152;8.182;2024-03-08T08:08:51;39.10;;;21.13;;
31770;SDS011;18343;50.152;8.182;2024-03-08T08:11:36;38.15;;;21.30;;
31770;SDS011;18343;50.152;8.182;2024-03-08T08:14:23;46.00;;;23.00;;
31770;SDS011;18343;50.152;8.182;2024-03-08T08:17:09;41.65;;;21.77;;
31770;SDS011;18343;50.152;8.182;2024-03-08T08:19:54;42.88;;;22.60;;
31770;SDS011;18343;50.152;8.182;2024-03-08T08:22:40;37.15;;;21.45;;
31770;SDS011;18343;50.152;8.182;2024-03-08T08:25:25;34.40;;;18.40;;
31770;SDS011;18343;50.152;8.182;2024-03-08T08:28:10;42.67;;;21.90;;
31770;SDS011;18343;50.152;8.182;2024-03-08T08:30:57;41.47;;;21.27;;
31770;SDS011;18343;50.152;8.182;2024-03-08T08:33:48;38.33;;;19.80;;
31770;SDS011;18343;50.152;8.182;2024-03-08T08:36:33;44.40;;;22.67;;
31770;SDS011;18343;50.152;8.182;2024-03-08T08:39:18;40.30;;;22.35;;
31770;SDS011;18343;50.152;8.182;2024-03-08T08:42:26;39.58;;;21.25;;
31770;SDS011;18343;50.152;8.182;2024-03-08T08:45:12;40.35;;;21.73;;
31770;SDS011;18343;50.152;8.182;2024-03-08T08:47:58;39.42;;;21.42;;
31770;SDS011;18343;50.152;8.182;2024-03-08T08:50:52;33.95;;;19.83;;
31770;SDS011;18343;50.152;8.182;2024-03-08T08:53:37;35.85;;;20.08;;
31770;SDS011;18343;50.152;8.182;2024-03-08T08:56:25;41.45;;;20.13;;
31770;SDS011;18343;50.152;8.182;2024-03-08T08:59:12;35.00;;;19.17;;
31770;SDS011;18343;50.152;8.182;2024-03-08T09:01:57;35.08;;;19.35;;
31770;SDS011;18343;50.152;8.182;2024-03-08T09:04:45;39.35;;;20.23;;
31770;SDS011;18343;50.152;8.182;2024-03-08T09:07:30;36.42;;;19.42;;
31770;SDS011;18343;50.152;8.182;2024-03-08T09:10:19;38.10;;;19.80;;
31770;SDS011;18343;50.152;8.182;2024-03-08T09:13:08;36.47;;;19.80;;
31770;SDS011;18343;50.152;8.182;2024-03-08T09:15:53;37.50;;;21.25;;
31770;SDS011;18343;50.152;8.182;2024-03-08T09:18:51;33.10;;;19.38;;
31770;SDS011;18343;50.152;8.182;2024-03-08T09:21:37;31.73;;;17.98;;
31770;SDS011;18343;50.152;8.182;2024-03-08T09:24:23;35.60;;;19.50;;
31770;SDS011;18343;50.152;8.182;2024-03-08T09:27:09;32.53;;;19.00;;
31770;SDS011;18343;50.152;8.182;2024-03-08T09:29:55;32.63;;;19.27;;
31770;SDS011;18343;50.152;8.182;2024-03-08T09:32:40;36.28;;;19.52;;
31770;SDS011;18343;50.152;8.182;2024-03-08T09:35:28;38.33;;;20.48;;
31770;SDS011;18343;50.152;8.182;2024-03-08T09:38:17;36.75;;;20.48;;
31770;SDS011;18343;50.152;8.182;2024-03-08T09:41:30;34.67;;;20.95;;
31770;SDS011;18343;50.152;8.182;2024-03-08T09:44:16;37.97;;;19.83;;
31770;SDS011;18343;50.152;8.182;2024-03-08T09:47:02;36.25;;;19.27;;
31770;SDS011;18343;50.152;8.182;2024-03-08T09:49:49;37.30;;;19.80;;
31770;SDS011;18343;50.152;8.182;2024-03-08T09:52:38;32.85;;;18.70;;
31770;SDS011;18343;50.152;8.182;2024-03-08T09:55:25;39.00;;;21.30;;
31770;SDS011;18343;50.152;8.182;2024-03-08T09:58:11;33.88;;;19.27;;
31770;SDS011;18343;50.152;8.182;2024-03-08T10:00:56;33.20;;;19.52;;
31770;SDS011;18343;50.152;8.182;2024-03-08T10:03:41;33.88;;;19.63;;
31770;SDS011;18343;50.152;8.182;2024-03-08T10:06:25;32.80;;;19.80;;
31770;SDS011;18343;50.152;8.182;2024-03-08T10:09:09;35.72;;;20.33;;
31770;SDS011;18343;50.152;8.182;2024-03-08T10:11:56;45.65;;;19.08;;
31770;SDS011;18343;50.152;8.182;2024-03-08T10:14:41;36.85;;;21.15;;
31770;SDS011;18343;50.152;8.182;2024-03-08T10:17:26;35.92;;;20.13;;
31770;SDS011;18343;50.152;8.182;2024-03-08T10:20:13;38.65;;;19.30;;
31770;SDS011;18343;50.152;8.182;2024-03-08T10:22:58;32.90;;;19.63;;
31770;SDS011;18343;50.152;8.182;2024-03-08T10:25:43;34.67;;;18.25;;
31770;SDS011;18343;50.152;8.182;2024-03-08T10:28:29;35.22;;;19.17;;
31770;SDS011;18343;50.152;8.182;2024-03-08T10:31:14;32.10;;;18.95;;
31770;SDS011;18343;50.152;8.182;2024-03-08T10:33:59;32.78;;;19.30;;
31770;SDS011;18343;50.152;8.182;2024-03-08T10:36:43;32.53;;;19.50;;
31770;SDS011;18343;50.152;8.182;2024-03-08T10:39:29;30.10;;;18.02;;
31770;SDS011;18343;50.152;8.182;2024-03-08T10:42:19;30.00;;;17.85;;
31770;SDS011;18343;50.152;8.182;2024-03-08T10:45:14;29.27;;;17.58;;
31770;SDS011;18343;50.152;8.182;2024-03-08T10:48:04;31.73;;;16.88;;
31770;SDS011;18343;50.152;8.182;2024-03-08T10:51:04;29.33;;;16.55;;
31770;SDS011;18343;50.152;8.182;2024-03-08T10:53:49;27.00;;;16.05;;
31770;SDS011;18343;50.152;8.182;2024-03-08T10:56:35;28.98;;;16.95;;
31770;SDS011;18343;50.152;8.182;2024-03-08T10:59:20;28.58;;;17.15;;
31770;SDS011;18343;50.152;8.182;2024-03-08T11:02:07;29.85;;;17.60;;
31770;SDS011;18343;50.152;8.182;2024-03-08T11:04:53;33.47;;;17.48;;
31770;SDS011;18343;50.152;8.182;2024-03-08T11:07:40;28.73;;;16.15;;
31770;SDS011;18343;50.152;8.182;2024-03-08T11:10:25;32.10;;;18.35;;
31770;SDS011;18343;50.152;8.182;2024-03-08T11:13:24;31.00;;;18.15;;
31770;SDS011;18343;50.152;8.182;2024-03-08T11:16:36;27.38;;;16.63;;
31770;SDS011;18343;50.152;8.182;2024-03-08T11:19:25;26.08;;;14.32;;
31770;SDS011;18343;50.152;8.182;2024-03-08T11:22:13;25.52;;;15.82;;
31770;SDS011;18343;50.152;8.182;2024-03-08T11:25:08;27.02;;;14.45;;
31770;SDS011;18343;50.152;8.182;2024-03-08T11:27:53;22.27;;;14.00;;
31770;SDS011;18343;50.152;8.182;2024-03-08T11:34:14;28.67;;;14.60;;
31770;SDS011;18343;50.152;8.182;2024-03-08T11:37:00;24.83;;;15.02;;
31770;SDS011;18343;50.152;8.182;2024-03-08T11:39:47;24.50;;;14.43;;
31770;SDS011;18343;50.152;8.182;2024-03-08T11:42:35;21.08;;;13.55;;
31770;SDS011;18343;50.152;8.182;2024-03-08T11:45:19;23.73;;;14.45;;
31770;SDS011;18343;50.152;8.182;2024-03-08T11:48:05;23.27;;;14.88;;
31770;SDS011;18343;50.152;8.182;2024-03-08T11:50:58;26.00;;;14.98;;
31770;SDS011;18343;50.152;8.182;2024-03-08T11:53:44;27.40;;;15.23;;
31770;SDS011;18343;50.152;8.182;2024-03-08T11:56:29;26.25;;;14.02;;
31770;SDS011;18343;50.152;8.182;2024-03-08T11:59:14;23.48;;;14.18;;
31770;SDS011;18343;50.152;8.182;2024-03-08T12:02:02;25.15;;;15.35;;
31770;SDS011;18343;50.152;8.182;2024-03-08T12:04:55;26.63;;;15.38;;
31770;SDS011;18343;50.152;8.182;2024-03-08T12:07:40;26.95;;;15.75;;
31770;SDS011;18343;50.152;8.182;2024-03-08T12:10:26;27.60;;;15.10;;
31770;SDS011;18343;50.152;8.182;2024-03-08T12:13:11;32.88;;;14.75;;
31770;SDS011;18343;50.152;8.182;2024-03-08T12:15:56;24.67;;;14.02;;
31770;SDS011;18343;50.152;8.182;2024-03-08T12:18:41;23.45;;;15.40;;
31770;SDS011;18343;50.152;8.182;2024-03-08T12:21:26;29.55;;;14.95;;
31770;SDS011;18343;50.152;8.182;2024-03-08T12:24:11;26.00;;;15.60;;
31770;SDS011;18343;50.152;8.182;2024-03-08T12:26:59;24.45;;;14.13;;
31770;SDS011;18343;50.152;8.182;2024-03-08T12:29:43;25.25;;;15.00;;
31770;SDS011;18343;50.152;8.182;2024-03-08T12:32:28;22.70;;;13.82;;
31770;SDS011;18343;50.152;8.182;2024-03-08T12:35:18;26.50;;;14.73;;
31770;SDS011;18343;50.152;8.182;2024-03-08T12:38:08;25.10;;;15.13;;
31770;SDS011;18343;50.152;8.182;2024-03-08T12:41:02;29.60;;;15.88;;
31770;SDS011;18343;50.152;8.182;2024-03-08T12:43:49;25.70;;;15.98;;
31770;SDS011;18343;50.152;8.182;2024-03-08T12:46:34;26.10;;;15.57;;
31770;SDS011;18343;50.152;8.182;2024-03-08T12:49:21;24.25;;;15.48;;
31770;SDS011;18343;50.152;8.182;2024-03-08T12:52:08;24.45;;;16.23;;
31770;SDS011;18343;50.152;8.182;2024-03-08T12:54:54;27.15;;;15.20;;
31770;SDS011;18343;50.152;8.182;2024-03-08T12:57:38;26.60;;;15.43;;
31770;SDS011;18343;50.152;8.182;2024-03-08T13:00:27;34.25;;;15.40;;
31770;SDS011;18343;50.152;8.182;2024-03-08T13:03:12;25.20;;;15.73;;
31770;SDS011;18343;50.152;8.182;2024-03-08T13:05:57;29.55;;;15.75;;
31770;SDS011;18343;50.152;8.182;2024-03-08T13:08:41;25.27;;;15.32;;
31770;SDS011;18343;50.152;8.182;2024-03-08T13:11:26;22.80;;;14.25;;
31770;SDS011;18343;50.152;8.182;2024-03-08T13:14:10;27.73;;;15.30;;
31770;SDS011;18343;50.152;8.182;2024-03-08T13:16:56;23.92;;;15.50;;
31770;SDS011;18343;50.152;8.182;2024-03-08T13:19:41;24.30;;;15.63;;
31770;SDS011;18343;50.152;8.182;2024-03-08T13:22:26;26.48;;;15.52;;
31770;SDS011;18343;50.152;8.182;2024-03-08T13:25:11;27.15;;;16.75;;
31770;SDS011;18343;50.152;8.182;2024-03-08T13:27:55;27.95;;;17.23;;
31770;SDS011;18343;50.152;8.182;2024-03-08T13:30:40;26.58;;;16.92;;
31770;SDS011;18343;50.152;8.182;2024-03-08T13:33:26;27.48;;;16.45;;
31770;SDS011;18343;50.152;8.182;2024-03-08T13:36:11;32.53;;;16.17;;
31770;SDS011;18343;50.152;8.182;2024-03-08T13:38:56;31.20;;;16.52;;
31770;SDS011;18343;50.152;8.182;2024-03-08T13:41:41;25.35;;;15.70;;
31770;SDS011;18343;50.152;8.182;2024-03-08T13:44:26;27.77;;;16.23;;
31770;SDS011;18343;50.152;8.182;2024-03-08T13:47:10;27.70;;;15.85;;
31770;SDS011;18343;50.152;8.182;2024-03-08T13:49:57;28.13;;;16.27;;
31770;SDS011;18343;50.152;8.182;2024-03-08T13:52:41;24.48;;;15.75;;
31770;SDS011;18343;50.152;8.182;2024-03-08T13:55:26;25.52;;;15.68;;
31770;SDS011;18343;50.152;8.182;2024-03-08T13:58:11;24.60;;;16.52;;
31770;SDS011;18343;50.152;8.182;2024-03-08T14:00:55;29.30;;;17.23;;
31770;SDS011;18343;50.152;8.182;2024-03-08T14:03:40;27.90;;;17.33;;
31770;SDS011;18343;50.152;8.182;2024-03-08T14:06:26;28.55;;;17.40;;
31770;SDS011;18343;50.152;8.182;2024-03-08T14:09:11;27.02;;;16.02;;
31770;SDS011;18343;50.152;8.182;2024-03-08T14:11:55;26.17;;;17.10;;
31770;SDS011;18343;50.152;8.182;2024-03-08T14:14:40;25.30;;;16.77;;
31770;SDS011;18343;50.152;8.182;2024-03-08T14:17:25;29.10;;;16.92;;
31770;SDS011;18343;50.152;8.182;2024-03-08T14:20:10;27.25;;;17.20;;
31770;SDS011;18343;50.152;8.182;2024-03-08T14:22:56;29.55;;;17.10;;
31770;SDS011;18343;50.152;8.182;2024-03-08T14:25:41;27.10;;;16.45;;
31770;SDS011;18343;50.152;8.182;2024-03-08T14:28:25;29.48;;;18.05;;
31770;SDS011;18343;50.152;8.182;2024-03-08T14:31:10;28.58;;;16.83;;
31770;SDS011;18343;50.152;8.182;2024-03-08T14:33:55;26.05;;;17.25;;
31770;SDS011;18343;50.152;8.182;2024-03-08T14:36:39;32.15;;;17.50;;
31770;SDS011;18343;50.152;8.182;2024-03-08T14:39:25;29.38;;;17.80;;
31770;SDS011;18343;50.152;8.182;2024-03-08T14:42:10;30.27;;;16.38;;
31770;SDS011;18343;50.152;8.182;2024-03-08T14:44:54;26.67;;;16.58;;
31770;SDS011;18343;50.152;8.182;2024-03-08T14:47:39;32.88;;;17.00;;
31770;SDS011;18343;50.152;8.182;2024-03-08T14:50:23;31.17;;;17.92;;
31770;SDS011;18343;50.152;8.182;2024-03-08T14:53:08;31.02;;;18.00;;
31770;SDS011;18343;50.152;8.182;2024-03-08T14:55:56;26.58;;;16.08;;
31770;SDS011;18343;50.152;8.182;2024-03-08T14:58:40;31.00;;;17.65;;
31770;SDS011;18343;50.152;8.182;2024-03-08T15:01:25;30.17;;;17.08;;
31770;SDS011;18343;50.152;8.182;2024-03-08T15:04:10;27.23;;;16.35;;
31770;SDS011;18343;50.152;8.182;2024-03-08T15:06:54;29.23;;;15.95;;
31770;SDS011;18343;50.152;8.182;2024-03-08T15:09:39;26.23;;;16.08;;
31770;SDS011;18343;50.152;8.182;2024-03-08T15:12:25;25.80;;;15.77;;
31770;SDS011;18343;50.152;8.182;2024-03-08T15:15:11;26.48;;;15.77;;
31770;SDS011;18343;50.152;8.182;2024-03-08T15:17:56;31.98;;;16.58;;
31770;SDS011;18343;50.152;8.182;2024-03-08T15:20:41;31.17;;;17.33;;
31770;SDS011;18343;50.152;8.182;2024-03-08T15:23:26;25.95;;;16.25;;
31770;SDS011;18343;50.152;8.182;2024-03-08T15:26:10;27.60;;;16.20;;
31770;SDS011;18343;50.152;8.182;2024-03-08T15:28:56;33.40;;;16.65;;
31770;SDS011;18343;50.152;8.182;2024-03-08T15:31:41;28.13;;;17.65;;
31770;SDS011;18343;50.152;8.182;2024-03-08T15:34:26;26.95;;;16.60;;
31770;SDS011;18343;50.152;8.182;2024-03-08T15:37:11;29.25;;;18.05;;
31770;SDS011;18343;50.152;8.182;2024-03-08T15:39:56;32.25;;;18.65;;
31770;SDS011;18343;50.152;8.182;2024-03-08T15:42:41;27.15;;;16.35;;
31770;SDS011;18343;50.152;8.182;2024-03-08T15:45:27;33.17;;;17.15;;
31770;SDS011;18343;50.152;8.182;2024-03-08T15:48:11;28.75;;;16.90;;
31770;SDS011;18343;50.152;8.182;2024-03-08T15:50:56;28.80;;;16.80;;
31770;SDS011;18343;50.152;8.182;2024-03-08T15:53:41;28.02;;;15.73;;
31770;SDS011;18343;50.152;8.182;2024-03-08T15:56:25;30.27;;;16.92;;
31770;SDS011;18343;50.152;8.182;2024-03-08T15:59:10;25.75;;;16.02;;
31770;SDS011;18343;50.152;8.182;2024-03-08T16:01:56;27.00;;;16.05;;
31770;SDS011;18343;50.152;8.182;2024-03-08T16:04:41;27.73;;;16.10;;
31770;SDS011;18343;50.152;8.182;2024-03-08T16:07:25;28.58;;;15.90;;
31770;SDS011;18343;50.152;8.182;2024-03-08T16:10:10;30.50;;;15.63;;
31770;SDS011;18343;50.152;8.182;2024-03-08T16:12:55;30.55;;;16.70;;
31770;SDS011;18343;50.152;8.182;2024-03-08T16:15:39;30.00;;;16.33;;
31770;SDS011;18343;50.152;8.182;2024-03-08T16:18:26;29.90;;;16.58;;
31770;SDS011;18343;50.152;8.182;2024-03-08T16:21:11;31.13;;;17.15;;
31770;SDS011;18343;50.152;8.182;2024-03-08T16:23:56;26.20;;;15.88;;
31770;SDS011;18343;50.152;8.182;2024-03-08T16:26:40;27.50;;;15.77;;